sensor_id;sensor_type;location;lat;lon;timestamp;pressure;altitude;pressure_sealevel;temperature;humidity
15477;BME280;7840;42.702;23.296;2023-07-30T00:00:41;94896.88;;;21.48;100.00
15477;BME280;7840;42.702;23.296;2023-07-30T00:03:09;94895.47;;;21.50;100.00
15477;BME280;7840;42.702;23.296;2023-07-30T00:05:36;94892.16;;;21.45;100.00
15477;BME280;7840;42.702;23.296;2023-07-30T00:08:07;94888.81;;;21.39;100.00
15477;BME280;7840;42.702;23.296;2023-07-30T00:10:37;94888.03;;;21.39;100.00
15477;BME280;7840;42.702;23.296;2023-07-30T00:13:04;94891.69;;;21.43;100.00
15477;BME280;7840;42.702;23.296;2023-07-30T00:15:33;94887.88;;;21.44;100.00
15477;BME280;7840;42.702;23.296;2023-07-30T00:18:00;94888.19;;;21.34;100.00
15477;BME280;7840;42.702;23.296;2023-07-30T00:20:28;94893.75;;;21.28;100.00
15477;BME280;7840;42.702;23.296;2023-07-30T00:22:55;94890.09;;;21.16;100.00
15477;BME280;7840;42.702;23.296;2023-07-30T00:25:23;94888.97;;;21.08;100.00
15477;BME280;7840;42.702;23.296;2023-07-30T00:27:51;94885.50;;;21.16;100.00
15477;BME280;7840;42.702;23.296;2023-07-30T00:30:19;94879.44;;;21.19;100.00
15477;BME280;7840;42.702;23.296;2023-07-30T00:32:50;94878.84;;;21.22;100.00
15477;BME280;7840;42.702;23.296;2023-07-30T00:35:17;94876.13;;;21.22;100.00
15477;BME280;7840;42.702;23.296;2023-07-30T00:37:45;94873.44;;;21.22;100.00
15477;BME280;7840;42.702;23.296;2023-07-30T00:40:12;94869.63;;;21.23;100.00
15477;BME280;7840;42.702;23.296;2023-07-30T00:42:40;94875.03;;;21.23;100.00
15477;BME280;7840;42.702;23.296;2023-07-30T00:45:10;94879.94;;;21.21;100.00
15477;BME280;7840;42.702;23.296;2023-07-30T00:47:38;94879.16;;;21.21;100.00
15477;BME280;7840;42.702;23.296;2023-07-30T00:50:07;94879.44;;;21.19;100.00
15477;BME280;7840;42.702;23.296;2023-07-30T00:52:35;94888.31;;;20.76;100.00
15477;BME280;7840;42.702;23.296;2023-07-30T00:55:04;94877.13;;;20.35;100.00
15477;BME280;7840;42.702;23.296;2023-07-30T00:57:34;94881.25;;;20.41;100.00
15477;BME280;7840;42.702;23.296;2023-07-30T01:00:03;94878.38;;;20.29;100.00
15477;BME280;7840;42.702;23.296;2023-07-30T01:02:33;94874.66;;;20.47;100.00
15477;BME280;7840;42.702;23.296;2023-07-30T01:05:01;94873.31;;;20.18;100.00
15477;BME280;7840;42.702;23.296;2023-07-30T01:07:29;94880.81;;;19.99;100.00
15477;BME280;7840;42.702;23.296;2023-07-30T01:09:57;94878.94;;;20.08;100.00
15477;BME280;7840;42.702;23.296;2023-07-30T01:12:26;94879.25;;;20.07;100.00
15477;BME280;7840;42.702;23.296;2023-07-30T01:14:55;94887.13;;;20.03;100.00
15477;BME280;7840;42.702;23.296;2023-07-30T01:17:22;94891.63;;;20.16;100.00
15477;BME280;7840;42.702;23.296;2023-07-30T01:19:53;94896.41;;;20.19;100.00
15477;BME280;7840;42.702;23.296;2023-07-30T01:22:23;94890.00;;;20.07;100.00
15477;BME280;7840;42.702;23.296;2023-07-30T01:24:51;94882.75;;;20.07;100.00
15477;BME280;7840;42.702;23.296;2023-07-30T01:27:24;94890.03;;;20.15;100.00
15477;BME280;7840;42.702;23.296;2023-07-30T01:29:55;94884.44;;;20.03;100.00
15477;BME280;7840;42.702;23.296;2023-07-30T01:32:27;94889.81;;;19.63;100.00
15477;BME280;7840;42.702;23.296;2023-07-30T01:34:56;94889.56;;;19.51;100.00
15477;BME280;7840;42.702;23.296;2023-07-30T01:37:26;94890.03;;;19.53;100.00
15477;BME280;7840;42.702;23.296;2023-07-30T01:39:55;94887.19;;;19.50;100.00
15477;BME280;7840;42.702;23.296;2023-07-30T01:42:28;94898.84;;;19.67;100.00
15477;BME280;7840;42.702;23.296;2023-07-30T01:44:56;94891.13;;;19.75;100.00
15477;BME280;7840;42.702;23.296;2023-07-30T01:47:24;94892.91;;;19.57;100.00
15477;BME280;7840;42.702;23.296;2023-07-30T01:49:51;94890.91;;;19.62;100.00
15477;BME280;7840;42.702;23.296;2023-07-30T01:52:19;94897.13;;;19.72;100.00
15477;BME280;7840;42.702;23.296;2023-07-30T01:54:48;94899.94;;;19.66;100.00
15477;BME280;7840;42.702;23.296;2023-07-30T01:57:15;94898.16;;;19.62;100.00
15477;BME280;7840;42.702;23.296;2023-07-30T01:59:43;94902.19;;;19.51;100.00
15477;BME280;7840;42.702;23.296;2023-07-30T02:02:10;94896.38;;;19.35;100.00
15477;BME280;7840;42.702;23.296;2023-07-30T02:04:38;94900.13;;;19.25;100.00
15477;BME280;7840;42.702;23.296;2023-07-30T02:07:06;94902.50;;;19.27;100.00
15477;BME280;7840;42.702;23.296;2023-07-30T02:09:33;94907.28;;;19.30;100.00
15477;BME280;7840;42.702;23.296;2023-07-30T02:12:02;94904.69;;;19.25;100.00
15477;BME280;7840;42.702;23.296;2023-07-30T02:14:30;94894.94;;;19.29;100.00
15477;BME280;7840;42.702;23.296;2023-07-30T02:16:58;94904.06;;;19.28;100.00
15477;BME280;7840;42.702;23.296;2023-07-30T02:19:25;94896.75;;;19.20;100.00
15477;BME280;7840;42.702;23.296;2023-07-30T02:21:53;94908.22;;;19.11;100.00
15477;BME280;7840;42.702;23.296;2023-07-30T02:24:20;94907.00;;;18.95;100.00
15477;BME280;7840;42.702;23.296;2023-07-30T02:26:48;94898.94;;;18.95;100.00
15477;BME280;7840;42.702;23.296;2023-07-30T02:29:17;94909.59;;;18.86;100.00
15477;BME280;7840;42.702;23.296;2023-07-30T02:31:44;94913.09;;;18.73;100.00
15477;BME280;7840;42.702;23.296;2023-07-30T02:34:12;94911.34;;;18.69;100.00
15477;BME280;7840;42.702;23.296;2023-07-30T02:36:39;94915.00;;;18.73;100.00
15477;BME280;7840;42.702;23.296;2023-07-30T02:39:07;94913.31;;;18.77;100.00
15477;BME280;7840;42.702;23.296;2023-07-30T02:41:41;94912.03;;;18.74;100.00
15477;BME280;7840;42.702;23.296;2023-07-30T02:44:09;94909.03;;;18.76;100.00
15477;BME280;7840;42.702;23.296;2023-07-30T02:46:37;94915.13;;;18.68;100.00
15477;BME280;7840;42.702;23.296;2023-07-30T02:49:05;94914.41;;;18.76;100.00
15477;BME280;7840;42.702;23.296;2023-07-30T02:51:32;94916.78;;;18.77;100.00
15477;BME280;7840;42.702;23.296;2023-07-30T02:54:04;94913.19;;;18.82;100.00
15477;BME280;7840;42.702;23.296;2023-07-30T02:56:33;94912.59;;;18.85;100.00
15477;BME280;7840;42.702;23.296;2023-07-30T02:59:00;94918.56;;;18.82;100.00
15477;BME280;7840;42.702;23.296;2023-07-30T03:01:28;94906.81;;;18.92;100.00
15477;BME280;7840;42.702;23.296;2023-07-30T03:04:04;94916.81;;;19.00;100.00
15477;BME280;7840;42.702;23.296;2023-07-30T03:06:32;94914.16;;;18.86;100.00
15477;BME280;7840;42.702;23.296;2023-07-30T03:08:59;94921.34;;;18.77;100.00
15477;BME280;7840;42.702;23.296;2023-07-30T03:11:26;94924.69;;;18.96;100.00
15477;BME280;7840;42.702;23.296;2023-07-30T03:13:54;94918.34;;;19.14;100.00
15477;BME280;7840;42.702;23.296;2023-07-30T03:16:21;94918.59;;;19.27;100.00
15477;BME280;7840;42.702;23.296;2023-07-30T03:18:49;94916.78;;;19.36;100.00
15477;BME280;7840;42.702;23.296;2023-07-30T03:21:18;94909.59;;;19.45;100.00
15477;BME280;7840;42.702;23.296;2023-07-30T03:23:45;94921.31;;;19.49;100.00
15477;BME280;7840;42.702;23.296;2023-07-30T03:26:14;94921.28;;;19.04;100.00
15477;BME280;7840;42.702;23.296;2023-07-30T03:28:42;94916.25;;;18.89;100.00
15477;BME280;7840;42.702;23.296;2023-07-30T03:31:09;94920.16;;;18.83;100.00
15477;BME280;7840;42.702;23.296;2023-07-30T03:33:37;94921.97;;;18.74;100.00
15477;BME280;7840;42.702;23.296;2023-07-30T03:36:10;94921.06;;;19.01;100.00
15477;BME280;7840;42.702;23.296;2023-07-30T03:38:38;94912.38;;;19.18;100.00
15477;BME280;7840;42.702;23.296;2023-07-30T03:41:06;94917.03;;;19.26;100.00
15477;BME280;7840;42.702;23.296;2023-07-30T03:43:34;94922.75;;;19.33;100.00
15477;BME280;7840;42.702;23.296;2023-07-30T03:46:02;94923.56;;;19.33;100.00
15477;BME280;7840;42.702;23.296;2023-07-30T03:48:29;94927.13;;;19.43;100.00
15477;BME280;7840;42.702;23.296;2023-07-30T03:50:57;94925.69;;;19.45;100.00
15477;BME280;7840;42.702;23.296;2023-07-30T03:53:25;94923.00;;;19.45;100.00
15477;BME280;7840;42.702;23.296;2023-07-30T03:55:54;94930.81;;;19.55;100.00
15477;BME280;7840;42.702;23.296;2023-07-30T03:58:21;94926.44;;;19.59;100.00
15477;BME280;7840;42.702;23.296;2023-07-30T04:00:49;94931.81;;;19.59;100.00
15477;BME280;7840;42.702;23.296;2023-07-30T04:03:16;94934.91;;;19.75;100.00
15477;BME280;7840;42.702;23.296;2023-07-30T04:05:44;94939.69;;;19.78;100.00
15477;BME280;7840;42.702;23.296;2023-07-30T04:08:11;94933.88;;;19.85;100.00
15477;BME280;7840;42.702;23.296;2023-07-30T04:10:41;94938.81;;;19.91;100.00
15477;BME280;7840;42.702;23.296;2023-07-30T04:13:10;94944.56;;;19.99;100.00
15477;BME280;7840;42.702;23.296;2023-07-30T04:15:38;94946.47;;;20.07;100.00
15477;BME280;7840;42.702;23.296;2023-07-30T04:18:05;94939.44;;;20.19;100.00
15477;BME280;7840;42.702;23.296;2023-07-30T04:20:33;94938.78;;;20.22;100.00
15477;BME280;7840;42.702;23.296;2023-07-30T04:23:00;94940.72;;;20.31;100.00
15477;BME280;7840;42.702;23.296;2023-07-30T04:25:28;94936.19;;;20.40;100.00
15477;BME280;7840;42.702;23.296;2023-07-30T04:27:55;94939.25;;;20.47;100.00
15477;BME280;7840;42.702;23.296;2023-07-30T04:30:24;94941.78;;;20.52;100.00
15477;BME280;7840;42.702;23.296;2023-07-30T04:32:52;94947.19;;;20.61;100.00
15477;BME280;7840;42.702;23.296;2023-07-30T04:35:19;94952.44;;;20.66;100.00
15477;BME280;7840;42.702;23.296;2023-07-30T04:37:47;94948.50;;;20.81;100.00
15477;BME280;7840;42.702;23.296;2023-07-30T04:40:14;94950.69;;;20.79;100.00
15477;BME280;7840;42.702;23.296;2023-07-30T04:42:42;94949.44;;;20.85;100.00
15477;BME280;7840;42.702;23.296;2023-07-30T04:45:12;94953.59;;;20.91;100.00
15477;BME280;7840;42.702;23.296;2023-07-30T04:47:42;94953.22;;;20.66;100.00
15477;BME280;7840;42.702;23.296;2023-07-30T04:50:10;94948.94;;;20.26;100.00
15477;BME280;7840;42.702;23.296;2023-07-30T04:52:37;94949.91;;;20.30;100.00
15477;BME280;7840;42.702;23.296;2023-07-30T04:55:06;94956.81;;;20.13;100.00
15477;BME280;7840;42.702;23.296;2023-07-30T04:57:34;94945.94;;;20.27;100.00
15477;BME280;7840;42.702;23.296;2023-07-30T05:00:01;94940.91;;;20.34;100.00
15477;BME280;7840;42.702;23.296;2023-07-30T05:02:29;94948.31;;;20.29;100.00
15477;BME280;7840;42.702;23.296;2023-07-30T05:04:58;94949.69;;;20.48;100.00
15477;BME280;7840;42.702;23.296;2023-07-30T05:07:25;94945.50;;;20.73;100.00
15477;BME280;7840;42.702;23.296;2023-07-30T05:09:53;94950.44;;;21.06;100.00
15477;BME280;7840;42.702;23.296;2023-07-30T05:12:20;94942.06;;;21.34;100.00
15477;BME280;7840;42.702;23.296;2023-07-30T05:14:51;94937.81;;;21.50;100.00
15477;BME280;7840;42.702;23.296;2023-07-30T05:17:19;94942.53;;;21.53;100.00
15477;BME280;7840;42.702;23.296;2023-07-30T05:19:46;94942.84;;;21.77;100.00
15477;BME280;7840;42.702;23.296;2023-07-30T05:22:15;94945.03;;;21.93;100.00
15477;BME280;7840;42.702;23.296;2023-07-30T05:24:43;94946.97;;;21.83;100.00
15477;BME280;7840;42.702;23.296;2023-07-30T05:27:10;94945.88;;;21.58;100.00
15477;BME280;7840;42.702;23.296;2023-07-30T05:29:38;94945.22;;;21.70;100.00
15477;BME280;7840;42.702;23.296;2023-07-30T05:32:06;94934.53;;;22.00;100.00
15477;BME280;7840;42.702;23.296;2023-07-30T05:34:34;94941.19;;;22.11;100.00
15477;BME280;7840;42.702;23.296;2023-07-30T05:37:02;94941.78;;;22.25;100.00
15477;BME280;7840;42.702;23.296;2023-07-30T05:39:34;94945.50;;;22.42;100.00
15477;BME280;7840;42.702;23.296;2023-07-30T05:42:01;94942.94;;;22.54;100.00
15477;BME280;7840;42.702;23.296;2023-07-30T05:44:29;94948.38;;;22.75;100.00
15477;BME280;7840;42.702;23.296;2023-07-30T05:46:57;94944.03;;;22.82;100.00
15477;BME280;7840;42.702;23.296;2023-07-30T05:49:25;94946.97;;;22.98;100.00
15477;BME280;7840;42.702;23.296;2023-07-30T05:51:52;94949.13;;;23.13;100.00
15477;BME280;7840;42.702;23.296;2023-07-30T05:54:20;94952.13;;;23.12;100.00
15477;BME280;7840;42.702;23.296;2023-07-30T05:56:49;94952.91;;;23.33;100.00
15477;BME280;7840;42.702;23.296;2023-07-30T05:59:16;94948.72;;;23.44;97.67
15477;BME280;7840;42.702;23.296;2023-07-30T06:01:44;94955.16;;;23.52;98.13
15477;BME280;7840;42.702;23.296;2023-07-30T06:04:11;94958.13;;;23.59;96.40
15477;BME280;7840;42.702;23.296;2023-07-30T06:06:39;94959.13;;;23.55;95.57
15477;BME280;7840;42.702;23.296;2023-07-30T06:09:06;94957.84;;;23.61;93.03
15477;BME280;7840;42.702;23.296;2023-07-30T06:11:34;94958.34;;;23.75;92.28
15477;BME280;7840;42.702;23.296;2023-07-30T06:14:03;94951.84;;;23.88;91.44
15477;BME280;7840;42.702;23.296;2023-07-30T06:16:30;94956.19;;;23.60;94.84
15477;BME280;7840;42.702;23.296;2023-07-30T06:18:58;94955.66;;;23.75;95.13
15477;BME280;7840;42.702;23.296;2023-07-30T06:21:25;94952.22;;;23.99;95.41
15477;BME280;7840;42.702;23.296;2023-07-30T06:23:53;94953.44;;;23.89;92.27
15477;BME280;7840;42.702;23.296;2023-07-30T06:26:20;94950.53;;;23.53;97.95
15477;BME280;7840;42.702;23.296;2023-07-30T06:28:48;94948.97;;;23.72;98.87
15477;BME280;7840;42.702;23.296;2023-07-30T06:31:16;94949.16;;;24.00;96.58
15477;BME280;7840;42.702;23.296;2023-07-30T06:33:44;94944.59;;;24.25;92.62
15477;BME280;7840;42.702;23.296;2023-07-30T06:36:12;94946.00;;;24.44;88.99
15477;BME280;7840;42.702;23.296;2023-07-30T06:38:39;94943.38;;;24.35;87.11
15477;BME280;7840;42.702;23.296;2023-07-30T06:41:07;94936.41;;;24.34;88.95
15477;BME280;7840;42.702;23.296;2023-07-30T06:43:36;94932.38;;;24.65;86.83
15477;BME280;7840;42.702;23.296;2023-07-30T06:46:03;94921.97;;;24.91;85.33
15477;BME280;7840;42.702;23.296;2023-07-30T06:48:32;94923.50;;;25.17;84.68
15477;BME280;7840;42.702;23.296;2023-07-30T06:51:00;94920.75;;;25.29;81.40
15477;BME280;7840;42.702;23.296;2023-07-30T06:53:27;94922.84;;;25.20;83.44
15477;BME280;7840;42.702;23.296;2023-07-30T06:55:55;94919.56;;;25.54;83.75
15477;BME280;7840;42.702;23.296;2023-07-30T06:58:23;94921.09;;;25.68;77.94
15477;BME280;7840;42.702;23.296;2023-07-30T07:00:50;94916.44;;;25.96;74.94
15477;BME280;7840;42.702;23.296;2023-07-30T07:03:18;94908.06;;;26.01;76.52
15477;BME280;7840;42.702;23.296;2023-07-30T07:05:53;94907.44;;;26.08;77.06
15477;BME280;7840;42.702;23.296;2023-07-30T07:08:21;94911.72;;;26.25;74.24
15477;BME280;7840;42.702;23.296;2023-07-30T07:10:49;94910.50;;;26.38;74.14
15477;BME280;7840;42.702;23.296;2023-07-30T07:13:17;94902.63;;;26.64;72.31
15477;BME280;7840;42.702;23.296;2023-07-30T07:15:44;94897.69;;;26.86;69.63
15477;BME280;7840;42.702;23.296;2023-07-30T07:18:12;94893.06;;;26.55;69.62
15477;BME280;7840;42.702;23.296;2023-07-30T07:20:39;94898.94;;;26.72;68.16
15477;BME280;7840;42.702;23.296;2023-07-30T07:23:09;94893.25;;;26.78;68.85
15477;BME280;7840;42.702;23.296;2023-07-30T07:25:36;94898.19;;;27.07;66.27
15477;BME280;7840;42.702;23.296;2023-07-30T07:28:04;94892.31;;;27.24;66.30
15477;BME280;7840;42.702;23.296;2023-07-30T07:30:36;94893.28;;;27.32;65.82
15477;BME280;7840;42.702;23.296;2023-07-30T07:33:09;94891.47;;;27.59;61.75
15477;BME280;7840;42.702;23.296;2023-07-30T07:35:38;94883.28;;;27.78;62.23
15477;BME280;7840;42.702;23.296;2023-07-30T07:38:07;94870.63;;;28.09;59.86
15477;BME280;7840;42.702;23.296;2023-07-30T07:40:37;94873.44;;;28.36;59.94
15477;BME280;7840;42.702;23.296;2023-07-30T07:43:06;94876.91;;;28.59;58.76
15477;BME280;7840;42.702;23.296;2023-07-30T07:45:34;94874.88;;;28.79;56.19
15477;BME280;7840;42.702;23.296;2023-07-30T07:48:02;94875.34;;;28.12;58.40
15477;BME280;7840;42.702;23.296;2023-07-30T07:50:29;94875.00;;;27.71;60.16
15477;BME280;7840;42.702;23.296;2023-07-30T07:52:57;94868.41;;;28.38;57.85
15477;BME280;7840;42.702;23.296;2023-07-30T07:55:25;94869.34;;;28.26;56.81
15477;BME280;7840;42.702;23.296;2023-07-30T07:57:53;94873.66;;;28.04;58.05
15477;BME280;7840;42.702;23.296;2023-07-30T08:00:20;94873.53;;;28.20;56.87
15477;BME280;7840;42.702;23.296;2023-07-30T08:02:48;94860.72;;;28.70;56.01
15477;BME280;7840;42.702;23.296;2023-07-30T08:05:16;94863.59;;;29.07;53.59
15477;BME280;7840;42.702;23.296;2023-07-30T08:07:46;94855.69;;;29.28;51.62
15477;BME280;7840;42.702;23.296;2023-07-30T08:10:13;94860.25;;;29.51;49.24
15477;BME280;7840;42.702;23.296;2023-07-30T08:12:42;94849.88;;;29.63;48.45
15477;BME280;7840;42.702;23.296;2023-07-30T08:15:10;94856.84;;;29.94;49.73
15477;BME280;7840;42.702;23.296;2023-07-30T08:17:38;94847.34;;;30.22;48.15
15477;BME280;7840;42.702;23.296;2023-07-30T08:20:06;94853.38;;;30.42;46.89
15477;BME280;7840;42.702;23.296;2023-07-30T08:22:34;94852.44;;;30.23;47.28
15477;BME280;7840;42.702;23.296;2023-07-30T08:25:02;94846.84;;;29.38;50.40
15477;BME280;7840;42.702;23.296;2023-07-30T08:27:30;94849.94;;;30.08;48.20
15477;BME280;7840;42.702;23.296;2023-07-30T08:29:58;94848.34;;;30.47;46.39
15477;BME280;7840;42.702;23.296;2023-07-30T08:32:26;94840.44;;;30.94;45.07
15477;BME280;7840;42.702;23.296;2023-07-30T08:34:53;94837.56;;;31.38;42.72
15477;BME280;7840;42.702;23.296;2023-07-30T08:37:21;94838.44;;;31.71;42.52
15477;BME280;7840;42.702;23.296;2023-07-30T08:39:49;94836.16;;;31.94;41.32
15477;BME280;7840;42.702;23.296;2023-07-30T08:42:17;94833.44;;;31.94;40.88
15477;BME280;7840;42.702;23.296;2023-07-30T08:44:44;94827.56;;;32.06;41.31
15477;BME280;7840;42.702;23.296;2023-07-30T08:47:15;94826.75;;;31.95;40.38
15477;BME280;7840;42.702;23.296;2023-07-30T08:49:42;94827.56;;;32.28;40.62
15477;BME280;7840;42.702;23.296;2023-07-30T08:52:11;94819.78;;;32.41;40.90
15477;BME280;7840;42.702;23.296;2023-07-30T08:54:39;94817.41;;;32.50;39.55
15477;BME280;7840;42.702;23.296;2023-07-30T08:57:08;94816.59;;;32.81;38.66
15477;BME280;7840;42.702;23.296;2023-07-30T08:59:39;94811.84;;;33.03;38.31
15477;BME280;7840;42.702;23.296;2023-07-30T09:02:17;94812.97;;;33.16;38.13
15477;BME280;7840;42.702;23.296;2023-07-30T09:04:47;94803.56;;;33.14;36.65
15477;BME280;7840;42.702;23.296;2023-07-30T09:07:16;94815.00;;;32.95;36.30
15477;BME280;7840;42.702;23.296;2023-07-30T09:09:44;94815.03;;;32.52;37.20
15477;BME280;7840;42.702;23.296;2023-07-30T09:12:16;94805.66;;;32.06;38.00
15477;BME280;7840;42.702;23.296;2023-07-30T09:14:44;94813.47;;;32.19;37.12
15477;BME280;7840;42.702;23.296;2023-07-30T09:17:18;94805.66;;;31.99;38.96
15477;BME280;7840;42.702;23.296;2023-07-30T09:19:46;94803.69;;;32.39;39.45
15477;BME280;7840;42.702;23.296;2023-07-30T09:22:14;94806.41;;;32.64;37.49
15477;BME280;7840;42.702;23.296;2023-07-30T09:24:46;94802.88;;;32.81;36.97
15477;BME280;7840;42.702;23.296;2023-07-30T09:27:14;94794.88;;;33.30;36.64
15477;BME280;7840;42.702;23.296;2023-07-30T09:29:51;94795.91;;;33.64;36.81
15477;BME280;7840;42.702;23.296;2023-07-30T09:32:20;94796.09;;;33.18;36.24
15477;BME280;7840;42.702;23.296;2023-07-30T09:34:47;94792.59;;;33.87;35.73
15477;BME280;7840;42.702;23.296;2023-07-30T09:37:16;94787.78;;;33.39;35.43
15477;BME280;7840;42.702;23.296;2023-07-30T09:39:44;94782.88;;;32.88;36.27
15477;BME280;7840;42.702;23.296;2023-07-30T09:42:15;94782.84;;;33.75;33.05
15477;BME280;7840;42.702;23.296;2023-07-30T09:44:42;94779.13;;;34.07;32.42
15477;BME280;7840;42.702;23.296;2023-07-30T09:47:10;94776.34;;;34.59;32.08
15477;BME280;7840;42.702;23.296;2023-07-30T09:49:39;94774.06;;;34.92;31.55
15477;BME280;7840;42.702;23.296;2023-07-30T09:52:07;94765.22;;;35.42;31.17
15477;BME280;7840;42.702;23.296;2023-07-30T09:54:34;94768.91;;;35.28;31.16
15477;BME280;7840;42.702;23.296;2023-07-30T09:57:04;94765.78;;;34.54;32.83
15477;BME280;7840;42.702;23.296;2023-07-30T09:59:32;94764.63;;;34.51;31.91
15477;BME280;7840;42.702;23.296;2023-07-30T10:01:59;94763.00;;;34.09;33.30
15477;BME280;7840;42.702;23.296;2023-07-30T10:04:29;94760.06;;;34.34;32.03
15477;BME280;7840;42.702;23.296;2023-07-30T10:07:03;94764.63;;;35.23;31.55
15477;BME280;7840;42.702;23.296;2023-07-30T10:09:37;94755.09;;;35.62;29.78
15477;BME280;7840;42.702;23.296;2023-07-30T10:12:10;94747.22;;;35.87;30.16
15477;BME280;7840;42.702;23.296;2023-07-30T10:14:39;94741.25;;;36.16;29.38
15477;BME280;7840;42.702;23.296;2023-07-30T10:17:13;94740.69;;;36.52;28.17
15477;BME280;7840;42.702;23.296;2023-07-30T10:19:41;94744.38;;;35.06;30.90
15477;BME280;7840;42.702;23.296;2023-07-30T10:22:23;94736.06;;;35.44;30.14
15477;BME280;7840;42.702;23.296;2023-07-30T10:24:58;94735.94;;;35.51;29.74
15477;BME280;7840;42.702;23.296;2023-07-30T10:27:35;94727.44;;;35.39;29.00
15477;BME280;7840;42.702;23.296;2023-07-30T10:30:11;94730.91;;;35.16;30.03
15477;BME280;7840;42.702;23.296;2023-07-30T10:32:39;94726.84;;;34.55;30.78
15477;BME280;7840;42.702;23.296;2023-07-30T10:35:07;94718.78;;;33.93;31.36
15477;BME280;7840;42.702;23.296;2023-07-30T10:37:39;94717.41;;;33.63;32.39
15477;BME280;7840;42.702;23.296;2023-07-30T10:40:16;94712.25;;;34.62;32.51
15477;BME280;7840;42.702;23.296;2023-07-30T10:42:45;94712.28;;;34.93;30.91
15477;BME280;7840;42.702;23.296;2023-07-30T10:45:12;94710.94;;;34.74;30.77
15477;BME280;7840;42.702;23.296;2023-07-30T10:47:41;94709.44;;;34.66;32.32
15477;BME280;7840;42.702;23.296;2023-07-30T10:50:10;94699.69;;;35.26;30.64
15477;BME280;7840;42.702;23.296;2023-07-30T10:52:40;94696.78;;;35.06;30.84
15477;BME280;7840;42.702;23.296;2023-07-30T10:55:08;94696.53;;;34.97;31.02
15477;BME280;7840;42.702;23.296;2023-07-30T10:57:36;94698.16;;;34.15;30.97
15477;BME280;7840;42.702;23.296;2023-07-30T11:00:06;94680.69;;;35.04;29.81
15477;BME280;7840;42.702;23.296;2023-07-30T11:02:34;94679.22;;;35.54;30.37
15477;BME280;7840;42.702;23.296;2023-07-30T11:05:13;94678.28;;;35.64;29.45
15477;BME280;7840;42.702;23.296;2023-07-30T11:07:51;94668.41;;;34.44;31.40
15477;BME280;7840;42.702;23.296;2023-07-30T11:10:18;94667.97;;;34.49;30.06
15477;BME280;7840;42.702;23.296;2023-07-30T11:12:48;94674.44;;;35.58;29.29
15477;BME280;7840;42.702;23.296;2023-07-30T11:15:16;94656.97;;;36.15;29.77
15477;BME280;7840;42.702;23.296;2023-07-30T11:17:44;94656.94;;;35.68;29.14
15477;BME280;7840;42.702;23.296;2023-07-30T11:20:22;94655.19;;;35.27;29.51
15477;BME280;7840;42.702;23.296;2023-07-30T11:22:54;94647.19;;;35.91;29.06
15477;BME280;7840;42.702;23.296;2023-07-30T11:25:21;94641.41;;;36.48;28.56
15477;BME280;7840;42.702;23.296;2023-07-30T11:27:50;94635.59;;;37.55;26.91
15477;BME280;7840;42.702;23.296;2023-07-30T11:30:18;94644.66;;;38.49;25.22
15477;BME280;7840;42.702;23.296;2023-07-30T11:32:46;94645.06;;;39.19;24.05
15477;BME280;7840;42.702;23.296;2023-07-30T11:35:15;94637.31;;;39.13;25.49
15477;BME280;7840;42.702;23.296;2023-07-30T11:37:44;94628.69;;;39.62;23.63
15477;BME280;7840;42.702;23.296;2023-07-30T11:40:13;94632.31;;;39.08;25.46
15477;BME280;7840;42.702;23.296;2023-07-30T11:42:42;94624.00;;;37.60;26.62
15477;BME280;7840;42.702;23.296;2023-07-30T11:45:19;94633.03;;;36.71;26.92
15477;BME280;7840;42.702;23.296;2023-07-30T11:47:48;94611.72;;;36.92;27.13
15477;BME280;7840;42.702;23.296;2023-07-30T11:50:16;94614.88;;;37.79;26.00
15477;BME280;7840;42.702;23.296;2023-07-30T11:52:53;94617.38;;;38.35;25.62
15477;BME280;7840;42.702;23.296;2023-07-30T11:55:23;94605.28;;;38.58;25.20
15477;BME280;7840;42.702;23.296;2023-07-30T11:57:51;94602.97;;;39.24;24.86
15477;BME280;7840;42.702;23.296;2023-07-30T12:00:21;94605.47;;;38.80;24.45
15477;BME280;7840;42.702;23.296;2023-07-30T12:02:49;94596.53;;;39.27;24.54
15477;BME280;7840;42.702;23.296;2023-07-30T12:05:17;94596.72;;;39.71;23.64
15477;BME280;7840;42.702;23.296;2023-07-30T12:07:47;94586.22;;;40.00;23.73
15477;BME280;7840;42.702;23.296;2023-07-30T12:10:15;94584.91;;;40.27;23.30
15477;BME280;7840;42.702;23.296;2023-07-30T12:12:50;94578.53;;;39.70;23.60
15477;BME280;7840;42.702;23.296;2023-07-30T12:15:19;94581.91;;;39.86;24.75
15477;BME280;7840;42.702;23.296;2023-07-30T12:17:51;94572.31;;;39.65;23.95
15477;BME280;7840;42.702;23.296;2023-07-30T12:20:19;94563.94;;;39.05;24.93
15477;BME280;7840;42.702;23.296;2023-07-30T12:22:47;94564.63;;;37.35;25.80
15477;BME280;7840;42.702;23.296;2023-07-30T12:25:15;94560.97;;;37.22;26.58
15477;BME280;7840;42.702;23.296;2023-07-30T12:27:42;94550.31;;;38.15;26.39
15477;BME280;7840;42.702;23.296;2023-07-30T12:30:12;94556.63;;;38.86;25.54
15477;BME280;7840;42.702;23.296;2023-07-30T12:32:39;94553.97;;;39.08;25.43
15477;BME280;7840;42.702;23.296;2023-07-30T12:35:07;94553.00;;;37.24;26.61
15477;BME280;7840;42.702;23.296;2023-07-30T12:37:35;94557.00;;;36.11;28.37
15477;BME280;7840;42.702;23.296;2023-07-30T12:40:03;94550.41;;;35.81;28.65
15477;BME280;7840;42.702;23.296;2023-07-30T12:42:31;94544.34;;;35.47;28.65
15477;BME280;7840;42.702;23.296;2023-07-30T12:44:58;94541.63;;;35.20;30.15
15477;BME280;7840;42.702;23.296;2023-07-30T12:47:27;94542.31;;;34.43;30.18
15477;BME280;7840;42.702;23.296;2023-07-30T12:49:55;94538.97;;;35.13;29.30
15477;BME280;7840;42.702;23.296;2023-07-30T12:52:22;94530.44;;;35.77;28.81
15477;BME280;7840;42.702;23.296;2023-07-30T12:54:50;94532.06;;;36.38;28.27
15477;BME280;7840;42.702;23.296;2023-07-30T12:57:17;94531.97;;;37.14;27.58
15477;BME280;7840;42.702;23.296;2023-07-30T12:59:45;94531.16;;;38.08;26.30
15477;BME280;7840;42.702;23.296;2023-07-30T13:02:12;94521.56;;;37.83;26.89